sensor_id;sensor_type;location;lat;lon;timestamp;P1;durP1;ratioP1;P2;durP2;ratioP2
69414;SDS011;56608;43.530;-5.652;2022-12-11T00:00:25;11.40;;;6.00;;
69414;SDS011;56608;43.530;-5.652;2022-12-11T00:01:27;10.10;;;5.93;;
69414;SDS011;56608;43.530;-5.652;2022-12-11T00:02:28;10.85;;;5.68;;
69414;SDS011;56608;43.530;-5.652;2022-12-11T00:03:29;10.30;;;6.10;;
69414;SDS011;56608;43.530;-5.652;2022-12-11T00:04:31;8.07;;;5.28;;
69414;SDS011;56608;43.530;-5.652;2022-12-11T00:05:32;9.40;;;5.60;;
69414;SDS011;56608;43.530;-5.652;2022-12-11T00:07:35;13.80;;;6.68;;
69414;SDS011;56608;43.530;-5.652;2022-12-11T00:08:36;12.57;;;7.37;;
69414;SDS011;56608;43.530;-5.652;2022-12-11T00:09:37;11.35;;;6.75;;
69414;SDS011;56608;43.530;-5.652;2022-12-11T00:10:38;13.20;;;7.20;;
69414;SDS011;56608;43.530;-5.652;2022-12-11T00:11:40;11.73;;;6.35;;
69414;SDS011;56608;43.530;-5.652;2022-12-11T00:12:40;11.80;;;7.10;;
69414;SDS011;56608;43.530;-5.652;2022-12-11T00:13:42;15.05;;;8.50;;
69414;SDS011;56608;43.530;-5.652;2022-12-11T00:14:44;14.55;;;8.20;;
69414;SDS011;56608;43.530;-5.652;2022-12-11T00:15:45;19.90;;;11.80;;
69414;SDS011;56608;43.530;-5.652;2022-12-11T00:16:47;22.55;;;14.60;;
69414;SDS011;56608;43.530;-5.652;2022-12-11T00:17:49;25.58;;;14.48;;
69414;SDS011;56608;43.530;-5.652;2022-12-11T00:18:50;18.37;;;11.12;;
69414;SDS011;56608;43.530;-5.652;2022-12-11T00:19:52;15.27;;;9.80;;
69414;SDS011;56608;43.530;-5.652;2022-12-11T00:20:53;12.17;;;7.63;;
69414;SDS011;56608;43.530;-5.652;2022-12-11T00:21:55;14.20;;;8.30;;
69414;SDS011;56608;43.530;-5.652;2022-12-11T00:22:56;17.00;;;8.38;;
69414;SDS011;56608;43.530;-5.652;2022-12-11T00:23:56;13.73;;;8.03;;
69414;SDS011;56608;43.530;-5.652;2022-12-11T00:24:58;14.27;;;8.30;;
69414;SDS011;56608;43.530;-5.652;2022-12-11T00:26:03;11.10;;;7.90;;
69414;SDS011;56608;43.530;-5.652;2022-12-11T00:27:06;16.83;;;7.95;;
69414;SDS011;56608;43.530;-5.652;2022-12-11T00:28:08;11.90;;;7.90;;
69414;SDS011;56608;43.530;-5.652;2022-12-11T00:29:10;12.60;;;8.18;;
69414;SDS011;56608;43.530;-5.652;2022-12-11T00:30:14;11.35;;;7.55;;
69414;SDS011;56608;43.530;-5.652;2022-12-11T00:32:17;13.57;;;7.70;;
69414;SDS011;56608;43.530;-5.652;2022-12-11T00:33:19;14.90;;;8.40;;
69414;SDS011;56608;43.530;-5.652;2022-12-11T00:34:20;14.85;;;8.00;;
69414;SDS011;56608;43.530;-5.652;2022-12-11T00:35:22;14.60;;;8.50;;
69414;SDS011;56608;43.530;-5.652;2022-12-11T00:36:23;14.20;;;8.70;;
69414;SDS011;56608;43.530;-5.652;2022-12-11T00:37:26;14.18;;;8.73;;
69414;SDS011;56608;43.530;-5.652;2022-12-11T00:38:28;11.73;;;7.90;;
69414;SDS011;56608;43.530;-5.652;2022-12-11T00:39:29;12.90;;;8.85;;
69414;SDS011;56608;43.530;-5.652;2022-12-11T00:40:34;14.53;;;8.47;;
69414;SDS011;56608;43.530;-5.652;2022-12-11T00:41:36;14.05;;;8.32;;
69414;SDS011;56608;43.530;-5.652;2022-12-11T00:42:37;14.80;;;8.30;;
69414;SDS011;56608;43.530;-5.652;2022-12-11T00:43:39;15.43;;;8.30;;
69414;SDS011;56608;43.530;-5.652;2022-12-11T00:44:39;13.67;;;8.73;;
69414;SDS011;56608;43.530;-5.652;2022-12-11T00:45:42;14.45;;;8.43;;
69414;SDS011;56608;43.530;-5.652;2022-12-11T00:46:45;14.75;;;8.98;;
69414;SDS011;56608;43.530;-5.652;2022-12-11T00:47:47;18.30;;;8.77;;
69414;SDS011;56608;43.530;-5.652;2022-12-11T00:48:48;13.45;;;8.15;;
69414;SDS011;56608;43.530;-5.652;2022-12-11T00:49:49;12.70;;;8.70;;
69414;SDS011;56608;43.530;-5.652;2022-12-11T00:50:51;13.13;;;7.78;;
69414;SDS011;56608;43.530;-5.652;2022-12-11T00:51:52;12.15;;;7.90;;
69414;SDS011;56608;43.530;-5.652;2022-12-11T00:52:53;14.00;;;7.15;;
69414;SDS011;56608;43.530;-5.652;2022-12-11T00:53:54;13.00;;;8.00;;
69414;SDS011;56608;43.530;-5.652;2022-12-11T00:54:56;12.35;;;7.30;;
69414;SDS011;56608;43.530;-5.652;2022-12-11T00:55:57;12.77;;;7.12;;
69414;SDS011;56608;43.530;-5.652;2022-12-11T00:56:59;14.93;;;7.72;;
69414;SDS011;56608;43.530;-5.652;2022-12-11T00:58:00;13.70;;;7.50;;
69414;SDS011;56608;43.530;-5.652;2022-12-11T00:59:02;11.20;;;7.50;;
69414;SDS011;56608;43.530;-5.652;2022-12-11T01:00:04;13.75;;;8.60;;
69414;SDS011;56608;43.530;-5.652;2022-12-11T01:01:17;17.80;;;9.15;;
69414;SDS011;56608;43.530;-5.652;2022-12-11T01:02:21;12.37;;;8.25;;
69414;SDS011;56608;43.530;-5.652;2022-12-11T01:03:22;19.60;;;8.80;;
69414;SDS011;56608;43.530;-5.652;2022-12-11T01:04:24;12.82;;;8.82;;
69414;SDS011;56608;43.530;-5.652;2022-12-11T01:05:25;14.65;;;8.75;;
69414;SDS011;56608;43.530;-5.652;2022-12-11T01:06:27;15.63;;;8.90;;
69414;SDS011;56608;43.530;-5.652;2022-12-11T01:07:29;13.90;;;8.45;;
69414;SDS011;56608;43.530;-5.652;2022-12-11T01:08:30;16.65;;;8.73;;
69414;SDS011;56608;43.530;-5.652;2022-12-11T01:09:31;12.30;;;7.90;;
69414;SDS011;56608;43.530;-5.652;2022-12-11T01:10:51;12.65;;;7.90;;
69414;SDS011;56608;43.530;-5.652;2022-12-11T01:12:01;13.27;;;7.82;;
69414;SDS011;56608;43.530;-5.652;2022-12-11T01:13:04;12.33;;;8.00;;
69414;SDS011;56608;43.530;-5.652;2022-12-11T01:14:07;16.30;;;8.38;;
69414;SDS011;56608;43.530;-5.652;2022-12-11T01:15:10;14.98;;;8.00;;
69414;SDS011;56608;43.530;-5.652;2022-12-11T01:17:15;14.00;;;8.38;;
69414;SDS011;56608;43.530;-5.652;2022-12-11T01:19:17;16.55;;;7.45;;
69414;SDS011;56608;43.530;-5.652;2022-12-11T01:20:19;12.80;;;8.05;;
69414;SDS011;56608;43.530;-5.652;2022-12-11T01:21:21;11.90;;;7.50;;
69414;SDS011;56608;43.530;-5.652;2022-12-11T01:22:22;12.43;;;7.65;;
69414;SDS011;56608;43.530;-5.652;2022-12-11T01:23:24;10.73;;;7.00;;
69414;SDS011;56608;43.530;-5.652;2022-12-11T01:24:25;14.35;;;8.30;;
69414;SDS011;56608;43.530;-5.652;2022-12-11T01:25:27;14.10;;;7.60;;
69414;SDS011;56608;43.530;-5.652;2022-12-11T01:26:28;13.80;;;8.40;;
69414;SDS011;56608;43.530;-5.652;2022-12-11T01:28:30;20.35;;;10.35;;
69414;SDS011;56608;43.530;-5.652;2022-12-11T01:29:32;15.25;;;9.25;;
69414;SDS011;56608;43.530;-5.652;2022-12-11T01:30:34;14.85;;;10.18;;
69414;SDS011;56608;43.530;-5.652;2022-12-11T01:31:36;16.05;;;9.70;;
69414;SDS011;56608;43.530;-5.652;2022-12-11T01:32:38;17.45;;;9.65;;
69414;SDS011;56608;43.530;-5.652;2022-12-11T01:33:39;15.68;;;10.05;;
69414;SDS011;56608;43.530;-5.652;2022-12-11T01:34:40;14.25;;;9.35;;
69414;SDS011;56608;43.530;-5.652;2022-12-11T01:35:42;16.45;;;9.88;;
69414;SDS011;56608;43.530;-5.652;2022-12-11T01:36:43;20.80;;;8.90;;
69414;SDS011;56608;43.530;-5.652;2022-12-11T01:37:46;18.10;;;9.02;;
69414;SDS011;56608;43.530;-5.652;2022-12-11T01:38:47;13.32;;;8.45;;
69414;SDS011;56608;43.530;-5.652;2022-12-11T01:39:49;17.35;;;8.68;;
69414;SDS011;56608;43.530;-5.652;2022-12-11T01:40:51;14.10;;;8.75;;
69414;SDS011;56608;43.530;-5.652;2022-12-11T01:41:56;17.07;;;9.00;;
69414;SDS011;56608;43.530;-5.652;2022-12-11T01:42:58;15.43;;;9.43;;
69414;SDS011;56608;43.530;-5.652;2022-12-11T01:45:37;14.65;;;8.18;;
69414;SDS011;56608;43.530;-5.652;2022-12-11T01:46:41;14.52;;;8.85;;
69414;SDS011;56608;43.530;-5.652;2022-12-11T01:47:43;17.05;;;8.77;;
69414;SDS011;56608;43.530;-5.652;2022-12-11T01:48:44;15.18;;;8.93;;
69414;SDS011;56608;43.530;-5.652;2022-12-11T01:49:46;12.90;;;8.30;;
69414;SDS011;56608;43.530;-5.652;2022-12-11T01:50:48;16.70;;;9.30;;
69414;SDS011;56608;43.530;-5.652;2022-12-11T01:51:53;15.10;;;8.77;;
69414;SDS011;56608;43.530;-5.652;2022-12-11T01:52:59;17.50;;;9.23;;
69414;SDS011;56608;43.530;-5.652;2022-12-11T01:54:03;14.25;;;8.68;;
69414;SDS011;56608;43.530;-5.652;2022-12-11T01:55:09;15.02;;;8.02;;
69414;SDS011;56608;43.530;-5.652;2022-12-11T01:56:10;12.85;;;8.15;;
69414;SDS011;56608;43.530;-5.652;2022-12-11T01:57:12;14.30;;;8.40;;
69414;SDS011;56608;43.530;-5.652;2022-12-11T01:58:15;13.55;;;8.23;;
69414;SDS011;56608;43.530;-5.652;2022-12-11T01:59:20;13.32;;;8.18;;
69414;SDS011;56608;43.530;-5.652;2022-12-11T02:00:24;14.35;;;8.50;;
69414;SDS011;56608;43.530;-5.652;2022-12-11T02:01:48;12.90;;;7.90;;
69414;SDS011;56608;43.530;-5.652;2022-12-11T02:02:47;15.25;;;8.60;;
69414;SDS011;56608;43.530;-5.652;2022-12-11T02:03:49;13.05;;;8.25;;
69414;SDS011;56608;43.530;-5.652;2022-12-11T02:04:50;17.55;;;9.23;;
69414;SDS011;56608;43.530;-5.652;2022-12-11T02:05:52;16.60;;;8.73;;
69414;SDS011;56608;43.530;-5.652;2022-12-11T02:06:53;14.85;;;8.30;;
69414;SDS011;56608;43.530;-5.652;2022-12-11T02:07:57;14.57;;;8.38;;
69414;SDS011;56608;43.530;-5.652;2022-12-11T02:09:01;13.38;;;8.63;;
69414;SDS011;56608;43.530;-5.652;2022-12-11T02:10:04;16.67;;;8.45;;
69414;SDS011;56608;43.530;-5.652;2022-12-11T02:11:18;13.43;;;8.68;;
69414;SDS011;56608;43.530;-5.652;2022-12-11T02:13:46;12.65;;;7.65;;
69414;SDS011;56608;43.530;-5.652;2022-12-11T02:16:25;16.95;;;8.43;;
69414;SDS011;56608;43.530;-5.652;2022-12-11T02:17:55;15.02;;;6.95;;
69414;SDS011;56608;43.530;-5.652;2022-12-11T02:20:17;12.37;;;6.68;;
69414;SDS011;56608;43.530;-5.652;2022-12-11T02:21:40;11.50;;;6.65;;
69414;SDS011;56608;43.530;-5.652;2022-12-11T02:24:31;11.65;;;7.10;;
69414;SDS011;56608;43.530;-5.652;2022-12-11T02:27:40;10.75;;;6.35;;
69414;SDS011;56608;43.530;-5.652;2022-12-11T02:30:08;9.65;;;6.47;;
69414;SDS011;56608;43.530;-5.652;2022-12-11T02:31:13;9.50;;;5.80;;
69414;SDS011;56608;43.530;-5.652;2022-12-11T02:32:24;9.77;;;5.70;;
69414;SDS011;56608;43.530;-5.652;2022-12-11T02:33:33;7.93;;;5.70;;
69414;SDS011;56608;43.530;-5.652;2022-12-11T02:34:40;9.18;;;5.65;;
69414;SDS011;56608;43.530;-5.652;2022-12-11T02:35:46;10.60;;;6.12;;
69414;SDS011;56608;43.530;-5.652;2022-12-11T02:36:51;10.45;;;6.47;;
69414;SDS011;56608;43.530;-5.652;2022-12-11T02:37:58;10.75;;;6.70;;
69414;SDS011;56608;43.530;-5.652;2022-12-11T02:39:03;9.65;;;6.78;;
69414;SDS011;56608;43.530;-5.652;2022-12-11T02:40:08;13.10;;;6.97;;
69414;SDS011;56608;43.530;-5.652;2022-12-11T02:41:12;10.20;;;7.03;;
69414;SDS011;56608;43.530;-5.652;2022-12-11T02:42:14;11.87;;;7.53;;
69414;SDS011;56608;43.530;-5.652;2022-12-11T02:43:19;11.98;;;7.28;;
69414;SDS011;56608;43.530;-5.652;2022-12-11T02:44:24;12.93;;;6.85;;
69414;SDS011;56608;43.530;-5.652;2022-12-11T02:45:29;12.65;;;7.30;;
69414;SDS011;56608;43.530;-5.652;2022-12-11T02:46:32;10.85;;;6.72;;
69414;SDS011;56608;43.530;-5.652;2022-12-11T02:47:35;9.27;;;6.90;;
69414;SDS011;56608;43.530;-5.652;2022-12-11T02:48:37;12.77;;;7.07;;
69414;SDS011;56608;43.530;-5.652;2022-12-11T02:49:42;13.13;;;7.22;;
69414;SDS011;56608;43.530;-5.652;2022-12-11T02:50:48;14.30;;;7.93;;
69414;SDS011;56608;43.530;-5.652;2022-12-11T02:51:52;12.80;;;8.05;;
69414;SDS011;56608;43.530;-5.652;2022-12-11T02:52:56;13.82;;;7.78;;
69414;SDS011;56608;43.530;-5.652;2022-12-11T02:54:00;14.93;;;8.18;;
69414;SDS011;56608;43.530;-5.652;2022-12-11T02:55:04;12.52;;;7.57;;
69414;SDS011;56608;43.530;-5.652;2022-12-11T02:56:12;13.45;;;8.48;;
69414;SDS011;56608;43.530;-5.652;2022-12-11T02:57:26;15.02;;;7.95;;
69414;SDS011;56608;43.530;-5.652;2022-12-11T02:58:33;12.75;;;7.75;;
69414;SDS011;56608;43.530;-5.652;2022-12-11T02:59:42;13.88;;;8.45;;
69414;SDS011;56608;43.530;-5.652;2022-12-11T03:00:45;12.18;;;7.97;;
69414;SDS011;56608;43.530;-5.652;2022-12-11T03:01:47;13.95;;;8.25;;
69414;SDS011;56608;43.530;-5.652;2022-12-11T03:02:49;13.70;;;8.63;;
69414;SDS011;56608;43.530;-5.652;2022-12-11T03:03:51;14.13;;;8.73;;
69414;SDS011;56608;43.530;-5.652;2022-12-11T03:04:53;13.25;;;8.68;;
69414;SDS011;56608;43.530;-5.652;2022-12-11T03:05:54;15.57;;;8.30;;
69414;SDS011;56608;43.530;-5.652;2022-12-11T03:06:57;13.75;;;8.20;;
69414;SDS011;56608;43.530;-5.652;2022-12-11T03:08:11;15.23;;;8.82;;
69414;SDS011;56608;43.530;-5.652;2022-12-11T03:09:18;15.50;;;8.70;;
69414;SDS011;56608;43.530;-5.652;2022-12-11T03:10:21;15.98;;;8.60;;
69414;SDS011;56608;43.530;-5.652;2022-12-11T03:11:22;16.70;;;9.35;;
69414;SDS011;56608;43.530;-5.652;2022-12-11T03:12:31;15.95;;;8.45;;
69414;SDS011;56608;43.530;-5.652;2022-12-11T03:13:37;16.02;;;8.55;;
69414;SDS011;56608;43.530;-5.652;2022-12-11T03:14:40;16.05;;;9.20;;
69414;SDS011;56608;43.530;-5.652;2022-12-11T03:15:50;16.85;;;9.35;;
69414;SDS011;56608;43.530;-5.652;2022-12-11T03:18:43;14.10;;;8.27;;
69414;SDS011;56608;43.530;-5.652;2022-12-11T03:21:03;15.23;;;8.82;;
69414;SDS011;56608;43.530;-5.652;2022-12-11T03:22:10;15.70;;;8.40;;
69414;SDS011;56608;43.530;-5.652;2022-12-11T03:23:20;14.77;;;9.43;;
69414;SDS011;56608;43.530;-5.652;2022-12-11T03:25:56;16.20;;;8.90;;
69414;SDS011;56608;43.530;-5.652;2022-12-11T03:27:35;13.55;;;8.93;;
69414;SDS011;56608;43.530;-5.652;2022-12-11T03:29:54;12.35;;;8.18;;
69414;SDS011;56608;43.530;-5.652;2022-12-11T03:30:57;15.63;;;9.02;;
69414;SDS011;56608;43.530;-5.652;2022-12-11T03:32:10;15.15;;;8.60;;
69414;SDS011;56608;43.530;-5.652;2022-12-11T03:33:17;14.82;;;8.80;;
69414;SDS011;56608;43.530;-5.652;2022-12-11T03:34:27;14.35;;;7.90;;
69414;SDS011;56608;43.530;-5.652;2022-12-11T03:35:33;13.27;;;8.40;;
69414;SDS011;56608;43.530;-5.652;2022-12-11T03:36:38;14.55;;;8.27;;
69414;SDS011;56608;43.530;-5.652;2022-12-11T03:37:41;13.82;;;8.20;;
69414;SDS011;56608;43.530;-5.652;2022-12-11T03:38:51;12.15;;;7.87;;
69414;SDS011;56608;43.530;-5.652;2022-12-11T03:39:59;12.95;;;7.75;;
69414;SDS011;56608;43.530;-5.652;2022-12-11T03:41:06;14.05;;;8.45;;
69414;SDS011;56608;43.530;-5.652;2022-12-11T03:42:09;13.95;;;7.80;;
69414;SDS011;56608;43.530;-5.652;2022-12-11T03:43:13;12.75;;;8.02;;
69414;SDS011;56608;43.530;-5.652;2022-12-11T03:44:17;14.95;;;8.25;;
69414;SDS011;56608;43.530;-5.652;2022-12-11T03:45:20;11.38;;;7.15;;
69414;SDS011;56608;43.530;-5.652;2022-12-11T03:46:29;13.43;;;7.93;;
69414;SDS011;56608;43.530;-5.652;2022-12-11T03:47:32;16.60;;;7.93;;
69414;SDS011;56608;43.530;-5.652;2022-12-11T03:48:36;9.88;;;7.18;;
69414;SDS011;56608;43.530;-5.652;2022-12-11T03:49:40;14.35;;;7.97;;
69414;SDS011;56608;43.530;-5.652;2022-12-11T03:50:43;13.13;;;7.93;;
69414;SDS011;56608;43.530;-5.652;2022-12-11T03:51:48;15.00;;;7.50;;
69414;SDS011;56608;43.530;-5.652;2022-12-11T03:52:51;13.75;;;8.40;;
69414;SDS011;56608;43.530;-5.652;2022-12-11T03:53:54;12.50;;;8.10;;
69414;SDS011;56608;43.530;-5.652;2022-12-11T03:54:58;14.70;;;8.40;;
69414;SDS011;56608;43.530;-5.652;2022-12-11T03:56:01;14.25;;;7.70;;
69414;SDS011;56608;43.530;-5.652;2022-12-11T03:57:06;11.75;;;7.37;;
69414;SDS011;56608;43.530;-5.652;2022-12-11T03:58:09;13.88;;;7.90;;
69414;SDS011;56608;43.530;-5.652;2022-12-11T03:59:11;11.95;;;7.62;;
69414;SDS011;56608;43.530;-5.652;2022-12-11T04:00:13;13.30;;;7.80;;
69414;SDS011;56608;43.530;-5.652;2022-12-11T04:01:16;10.45;;;7.25;;
69414;SDS011;56608;43.530;-5.652;2022-12-11T04:02:18;11.80;;;7.40;;
69414;SDS011;56608;43.530;-5.652;2022-12-11T04:03:19;12.25;;;7.32;;
69414;SDS011;56608;43.530;-5.652;2022-12-11T04:04:21;12.00;;;7.57;;
69414;SDS011;56608;43.530;-5.652;2022-12-11T04:05:22;11.90;;;7.62;;
69414;SDS011;56608;43.530;-5.652;2022-12-11T04:06:24;13.65;;;7.70;;
69414;SDS011;56608;43.530;-5.652;2022-12-11T04:07:24;11.53;;;7.83;;
69414;SDS011;56608;43.530;-5.652;2022-12-11T04:08:26;12.90;;;7.50;;
69414;SDS011;56608;43.530;-5.652;2022-12-11T04:09:28;11.60;;;7.00;;
69414;SDS011;56608;43.530;-5.652;2022-12-11T04:10:28;13.60;;;8.30;;
69414;SDS011;56608;43.530;-5.652;2022-12-11T04:11:30;14.15;;;8.18;;
69414;SDS011;56608;43.530;-5.652;2022-12-11T04:12:34;15.27;;;9.13;;
69414;SDS011;56608;43.530;-5.652;2022-12-11T04:13:36;12.87;;;8.30;;
69414;SDS011;56608;43.530;-5.652;2022-12-11T04:14:39;15.48;;;9.82;;
69414;SDS011;56608;43.530;-5.652;2022-12-11T04:15:59;14.77;;;8.27;;
69414;SDS011;56608;43.530;-5.652;2022-12-11T04:17:00;13.70;;;8.80;;
69414;SDS011;56608;43.530;-5.652;2022-12-11T04:18:02;16.15;;;9.10;;
69414;SDS011;56608;43.530;-5.652;2022-12-11T04:19:22;15.80;;;9.57;;
69414;SDS011;56608;43.530;-5.652;2022-12-11T04:20:43;15.43;;;9.05;;
69414;SDS011;56608;43.530;-5.652;2022-12-11T04:22:02;14.50;;;8.32;;
69414;SDS011;56608;43.530;-5.652;2022-12-11T04:23:23;14.15;;;8.32;;
69414;SDS011;56608;43.530;-5.652;2022-12-11T04:24:43;14.15;;;8.27;;
69414;SDS011;56608;43.530;-5.652;2022-12-11T04:25:43;14.40;;;8.40;;
69414;SDS011;56608;43.530;-5.652;2022-12-11T04:26:45;14.63;;;8.27;;
69414;SDS011;56608;43.530;-5.652;2022-12-11T04:27:47;16.52;;;8.48;;
69414;SDS011;56608;43.530;-5.652;2022-12-11T04:28:49;12.60;;;7.87;;
69414;SDS011;56608;43.530;-5.652;2022-12-11T04:29:51;11.82;;;7.75;;
69414;SDS011;56608;43.530;-5.652;2022-12-11T04:30:51;11.45;;;7.45;;
69414;SDS011;56608;43.530;-5.652;2022-12-11T04:31:53;13.20;;;7.82;;
69414;SDS011;56608;43.530;-5.652;2022-12-11T04:32:55;14.50;;;7.25;;
69414;SDS011;56608;43.530;-5.652;2022-12-11T04:33:56;11.90;;;7.50;;
69414;SDS011;56608;43.530;-5.652;2022-12-11T04:34:58;13.23;;;7.78;;
69414;SDS011;56608;43.530;-5.652;2022-12-11T04:35:59;11.60;;;7.75;;
69414;SDS011;56608;43.530;-5.652;2022-12-11T04:37:01;13.25;;;7.12;;
69414;SDS011;56608;43.530;-5.652;2022-12-11T04:38:01;14.25;;;7.75;;
69414;SDS011;56608;43.530;-5.652;2022-12-11T04:39:03;14.43;;;7.78;;
69414;SDS011;56608;43.530;-5.652;2022-12-11T04:40:07;10.80;;;7.00;;
69414;SDS011;56608;43.530;-5.652;2022-12-11T04:41:11;12.77;;;7.90;;
69414;SDS011;56608;43.530;-5.652;2022-12-11T04:42:14;15.63;;;7.82;;
69414;SDS011;56608;43.530;-5.652;2022-12-11T04:43:15;15.80;;;8.18;;
69414;SDS011;56608;43.530;-5.652;2022-12-11T04:44:17;15.25;;;8.73;;
69414;SDS011;56608;43.530;-5.652;2022-12-11T04:45:18;15.35;;;8.55;;
69414;SDS011;56608;43.530;-5.652;2022-12-11T04:46:20;11.20;;;7.70;;
69414;SDS011;56608;43.530;-5.652;2022-12-11T04:47:23;13.25;;;7.53;;
69414;SDS011;56608;43.530;-5.652;2022-12-11T04:48:25;12.37;;;8.68;;
69414;SDS011;56608;43.530;-5.652;2022-12-11T04:49:26;11.10;;;7.33;;
69414;SDS011;56608;43.530;-5.652;2022-12-11T04:50:27;12.15;;;7.43;;
69414;SDS011;56608;43.530;-5.652;2022-12-11T04:51:29;11.30;;;7.60;;
69414;SDS011;56608;43.530;-5.652;2022-12-11T04:52:30;12.82;;;7.07;;
69414;SDS011;56608;43.530;-5.652;2022-12-11T04:53:32;16.90;;;7.75;;
69414;SDS011;56608;43.530;-5.652;2022-12-11T04:54:34;14.93;;;7.72;;
69414;SDS011;56608;43.530;-5.652;2022-12-11T04:55:35;12.32;;;7.60;;
69414;SDS011;56608;43.530;-5.652;2022-12-11T04:56:39;10.55;;;7.72;;
69414;SDS011;56608;43.530;-5.652;2022-12-11T04:57:41;10.43;;;7.30;;
69414;SDS011;56608;43.530;-5.652;2022-12-11T04:58:41;14.93;;;7.63;;
69414;SDS011;56608;43.530;-5.652;2022-12-11T04:59:44;9.52;;;6.82;;
69414;SDS011;56608;43.530;-5.652;2022-12-11T05:00:44;10.67;;;7.40;;
69414;SDS011;56608;43.530;-5.652;2022-12-11T05:01:46;11.02;;;7.30;;
69414;SDS011;56608;43.530;-5.652;2022-12-11T05:02:48;9.73;;;6.62;;
69414;SDS011;56608;43.530;-5.652;2022-12-11T05:03:49;11.98;;;7.15;;
69414;SDS011;56608;43.530;-5.652;2022-12-11T05:04:51;12.80;;;7.18;;
69414;SDS011;56608;43.530;-5.652;2022-12-11T05:05:52;12.10;;;7.00;;
69414;SDS011;56608;43.530;-5.652;2022-12-11T05:06:54;12.23;;;6.37;;
69414;SDS011;56608;43.530;-5.652;2022-12-11T05:07:55;11.50;;;6.70;;
69414;SDS011;56608;43.530;-5.652;2022-12-11T05:08:57;12.75;;;7.40;;
69414;SDS011;56608;43.530;-5.652;2022-12-11T05:09:57;10.93;;;6.67;;
69414;SDS011;56608;43.530;-5.652;2022-12-11T05:11:01;11.02;;;6.90;;
69414;SDS011;56608;43.530;-5.652;2022-12-11T05:12:04;11.93;;;6.57;;
69414;SDS011;56608;43.530;-5.652;2022-12-11T05:13:04;10.63;;;6.87;;
69414;SDS011;56608;43.530;-5.652;2022-12-11T05:14:06;10.73;;;7.05;;
69414;SDS011;56608;43.530;-5.652;2022-12-11T05:15:08;9.52;;;6.55;;
69414;SDS011;56608;43.530;-5.652;2022-12-11T05:17:11;11.20;;;6.40;;
69414;SDS011;56608;43.530;-5.652;2022-12-11T05:19:14;9.70;;;6.32;;
69414;SDS011;56608;43.530;-5.652;2022-12-11T05:20:16;9.60;;;5.97;;
69414;SDS011;56608;43.530;-5.652;2022-12-11T05:21:18;9.35;;;6.45;;
69414;SDS011;56608;43.530;-5.652;2022-12-11T05:22:19;12.90;;;6.82;;
69414;SDS011;56608;43.530;-5.652;2022-12-11T05:23:21;10.52;;;6.35;;
69414;SDS011;56608;43.530;-5.652;2022-12-11T05:24:22;12.30;;;6.45;;
69414;SDS011;56608;43.530;-5.652;2022-12-11T05:25:23;11.05;;;6.82;;
69414;SDS011;56608;43.530;-5.652;2022-12-11T05:26:25;11.80;;;7.00;;
69414;SDS011;56608;43.530;-5.652;2022-12-11T05:27:25;9.30;;;6.30;;
69414;SDS011;56608;43.530;-5.652;2022-12-11T05:28:28;11.30;;;6.40;;
69414;SDS011;56608;43.530;-5.652;2022-12-11T05:29:31;9.27;;;6.15;;
69414;SDS011;56608;43.530;-5.652;2022-12-11T05:30:32;11.60;;;7.07;;
69414;SDS011;56608;43.530;-5.652;2022-12-11T05:31:33;11.25;;;6.90;;
69414;SDS011;56608;43.530;-5.652;2022-12-11T05:32:35;14.20;;;6.55;;
69414;SDS011;56608;43.530;-5.652;2022-12-11T05:33:36;11.35;;;7.15;;
69414;SDS011;56608;43.530;-5.652;2022-12-11T05:34:38;10.23;;;6.23;;
69414;SDS011;56608;43.530;-5.652;2022-12-11T05:35:45;12.50;;;6.87;;
69414;SDS011;56608;43.530;-5.652;2022-12-11T05:36:47;11.45;;;6.90;;
69414;SDS011;56608;43.530;-5.652;2022-12-11T05:37:48;12.53;;;6.50;;
69414;SDS011;56608;43.530;-5.652;2022-12-11T05:38:50;11.65;;;6.57;;
69414;SDS011;56608;43.530;-5.652;2022-12-11T05:39:52;10.82;;;6.40;;
69414;SDS011;56608;43.530;-5.652;2022-12-11T05:41:59;12.88;;;6.70;;
69414;SDS011;56608;43.530;-5.652;2022-12-11T05:43:00;12.10;;;7.28;;
69414;SDS011;56608;43.530;-5.652;2022-12-11T05:44:02;10.00;;;6.60;;
69414;SDS011;56608;43.530;-5.652;2022-12-11T05:45:03;10.05;;;6.53;;
69414;SDS011;56608;43.530;-5.652;2022-12-11T05:47:11;11.75;;;6.82;;
69414;SDS011;56608;43.530;-5.652;2022-12-11T05:48:13;10.02;;;6.35;;
69414;SDS011;56608;43.530;-5.652;2022-12-11T05:49:14;11.50;;;6.90;;
69414;SDS011;56608;43.530;-5.652;2022-12-11T05:50:15;11.97;;;6.73;;
69414;SDS011;56608;43.530;-5.652;2022-12-11T05:51:17;10.90;;;6.75;;
69414;SDS011;56608;43.530;-5.652;2022-12-11T05:52:19;11.45;;;6.68;;
69414;SDS011;56608;43.530;-5.652;2022-12-11T05:53:21;13.27;;;7.07;;
69414;SDS011;56608;43.530;-5.652;2022-12-11T05:54:23;12.77;;;7.15;;
69414;SDS011;56608;43.530;-5.652;2022-12-11T05:55:24;11.32;;;7.20;;
69414;SDS011;56608;43.530;-5.652;2022-12-11T05:56:29;11.70;;;6.97;;
69414;SDS011;56608;43.530;-5.652;2022-12-11T05:57:32;11.43;;;6.95;;
69414;SDS011;56608;43.530;-5.652;2022-12-11T05:58:33;15.87;;;6.90;;
69414;SDS011;56608;43.530;-5.652;2022-12-11T05:59:35;11.35;;;7.10;;
69414;SDS011;56608;43.530;-5.652;2022-12-11T06:00:36;13.13;;;7.00;;
69414;SDS011;56608;43.530;-5.652;2022-12-11T06:01:41;11.43;;;6.93;;
69414;SDS011;56608;43.530;-5.652;2022-12-11T06:02:43;10.48;;;6.53;;
69414;SDS011;56608;43.530;-5.652;2022-12-11T06:03:43;9.93;;;6.30;;
69414;SDS011;56608;43.530;-5.652;2022-12-11T06:04:45;10.75;;;6.45;;
69414;SDS011;56608;43.530;-5.652;2022-12-11T06:05:47;12.18;;;6.57;;
69414;SDS011;56608;43.530;-5.652;2022-12-11T06:06:49;11.98;;;6.80;;
69414;SDS011;56608;43.530;-5.652;2022-12-11T06:07:49;10.40;;;6.40;;
69414;SDS011;56608;43.530;-5.652;2022-12-11T06:08:52;11.70;;;6.85;;
69414;SDS011;56608;43.530;-5.652;2022-12-11T06:09:54;14.23;;;6.95;;
69414;SDS011;56608;43.530;-5.652;2022-12-11T06:10:56;10.13;;;6.45;;
69414;SDS011;56608;43.530;-5.652;2022-12-11T06:11:57;10.63;;;7.12;;
69414;SDS011;56608;43.530;-5.652;2022-12-11T06:12:59;11.70;;;6.70;;
69414;SDS011;56608;43.530;-5.652;2022-12-11T06:14:02;12.15;;;6.68;;
69414;SDS011;56608;43.530;-5.652;2022-12-11T06:15:04;11.35;;;6.95;;
69414;SDS011;56608;43.530;-5.652;2022-12-11T06:16:06;10.20;;;6.60;;
69414;SDS011;56608;43.530;-5.652;2022-12-11T06:17:08;11.23;;;6.55;;
69414;SDS011;56608;43.530;-5.652;2022-12-11T06:18:09;10.30;;;6.35;;
69414;SDS011;56608;43.530;-5.652;2022-12-11T06:19:12;11.07;;;6.95;;
69414;SDS011;56608;43.530;-5.652;2022-12-11T06:20:14;10.35;;;6.30;;
69414;SDS011;56608;43.530;-5.652;2022-12-11T06:21:21;12.02;;;6.53;;
69414;SDS011;56608;43.530;-5.652;2022-12-11T06:22:24;10.32;;;6.50;;
69414;SDS011;56608;43.530;-5.652;2022-12-11T06:23:25;11.20;;;5.95;;
69414;SDS011;56608;43.530;-5.652;2022-12-11T06:24:26;13.60;;;7.40;;
69414;SDS011;56608;43.530;-5.652;2022-12-11T06:25:28;11.90;;;7.30;;
69414;SDS011;56608;43.530;-5.652;2022-12-11T06:26:30;11.48;;;6.75;;
69414;SDS011;56608;43.530;-5.652;2022-12-11T06:27:31;9.60;;;6.33;;
69414;SDS011;56608;43.530;-5.652;2022-12-11T06:28:33;11.30;;;6.50;;
69414;SDS011;56608;43.530;-5.652;2022-12-11T06:29:34;9.60;;;5.97;;
69414;SDS011;56608;43.530;-5.652;2022-12-11T06:30:36;10.50;;;6.55;;
69414;SDS011;56608;43.530;-5.652;2022-12-11T06:31:37;10.60;;;6.28;;
69414;SDS011;56608;43.530;-5.652;2022-12-11T06:32:38;7.80;;;5.27;;
69414;SDS011;56608;43.530;-5.652;2022-12-11T06:33:40;11.05;;;6.50;;
69414;SDS011;56608;43.530;-5.652;2022-12-11T06:34:41;9.88;;;6.00;;
69414;SDS011;56608;43.530;-5.652;2022-12-11T06:35:43;10.35;;;6.10;;
69414;SDS011;56608;43.530;-5.652;2022-12-11T06:36:44;12.95;;;6.70;;